M.o.m. — WDE6166 — position and weather

sailwx.info

Track history (hours):
 
Tides and Currents Weather Stations Pressure Air Temp Water Temp Dewpoint Dewpoint Depression Visibility Wind Speed Wind Dir Waves Ship Positions

M.o.m.

Owner: Anderson, Carl W, Lopez Island, WA. More information available from US FCC via Universal Licensing System and Coast Guard Vessel Documentation Center.

Last reported at 2017-Sep-12 01:34 UTC. Time now 2017-Sep-24 05:19 UTC.
Position N 48°31' W 122°55'.
Warning: this ship's position is 12 days out of date.

Length 11 m.

Type: Sailing vessel. MMSI: 367376770.

Date/timePositionNaut miles runAvg speedWind from/ knotsBaromVisibWave heightAir tempDewpointWater temp
2017-Sep-12 01:34N 48°31' W 122°55'0 0.0
2017-Sep-12 01:22N 48°31' W 122°55'1 3.2
2017-Sep-12 01:00N 48°32' W 122°56'2 5.0
2017-Sep-12 00:30N 48°32' W 122°60'1 1.6
2017-Sep-11 23:54N 48°32' W 123°01'2 4.0
2017-Sep-11 23:29N 48°32' W 122°58'2 3.6
2017-Sep-11 23:00N 48°32' W 122°56'1 1.9
2017-Sep-11 22:30N 48°31' W 122°55'  
2017-Sep-09 02:43N 48°31' W 122°55'0 0.0
2017-Sep-09 02:28N 48°31' W 122°55'0 0.0
2017-Sep-09 01:58N 48°31' W 122°55'0 0.0
2017-Sep-09 01:25N 48°31' W 122°55'0 0.0
2017-Sep-09 00:58N 48°31' W 122°55'0 0.0
2017-Sep-09 00:28N 48°31' W 122°55'0 0.2
2017-Sep-08 23:58N 48°31' W 122°55'1 2.2
2017-Sep-08 23:30N 48°32' W 122°56'2 4.8
2017-Sep-08 22:59N 48°32' W 122°59'1 0.6
2017-Sep-08 21:04N 48°32' W 123°01'0 0.1
2017-Sep-08 20:59N 48°32' W 123°01'2 4.4
2017-Sep-08 20:30N 48°32' W 122°58'3 5.8
2017-Sep-08 20:00N 48°29' W 122°58'2 3.6
2017-Sep-08 19:21N 48°27' W 122°59'0 0.1
2017-Sep-08 17:45N 48°26' W 122°59'1 4.9
2017-Sep-08 17:30N 48°26' W 122°57'3 5.7
2017-Sep-08 17:00N 48°29' W 122°57'3 5.7
2017-Sep-08 16:30N 48°31' W 122°55'0 0.9
2017-Sep-08 15:59N 48°31' W 122°55'0 0.0
2017-Sep-08 15:29N 48°31' W 122°55'0 0.0
2017-Sep-08 15:00N 48°31' W 122°55'0 0.0
2017-Sep-08 00:48N 48°31' W 122°55'0 0.0
2017-Sep-08 00:30N 48°31' W 122°55'0 0.0
2017-Sep-08 00:00N 48°31' W 122°55'0 0.0
2017-Sep-07 23:30N 48°31' W 122°55'0 0.0
2017-Sep-07 22:57N 48°31' W 122°55'0 0.0
2017-Sep-07 22:30N 48°31' W 122°55'1 1.8
2017-Sep-07 21:59N 48°31' W 122°56'1 1.8
2017-Sep-07 21:31N 48°31' W 122°57'1 2.7
2017-Sep-07 21:00N 48°30' W 122°57'  
2017-Sep-04 18:35N 48°32' W 122°48'1 6.2
2017-Sep-04 18:28N 48°32' W 122°50'2 0.1
2017-Sep-04 02:58N 48°33' W 122°52'0 0.0
2017-Sep-04 02:30N 48°33' W 122°52'1 2.8
2017-Sep-04 02:00N 48°34' W 122°54'2 4.8
2017-Sep-04 01:30N 48°32' W 122°55'1 0.3
2017-Sep-03 22:08N 48°31' W 122°55'0 0.3
2017-Sep-03 22:00N 48°31' W 122°55'2 5.0
2017-Sep-03 21:30N 48°33' W 122°56'  
Track history (hours):
 
Tides and Currents Weather Stations Pressure Air Temp Water Temp Dewpoint Dewpoint Depression Visibility Wind Speed Wind Dir Waves Ship Positions

M.o.m.

Owner: Anderson, Carl W, Lopez Island, WA. More information available from US FCC via Universal Licensing System and Coast Guard Vessel Documentation Center.

Last reported at 2017-Sep-12 01:34 UTC. Time now 2017-Sep-24 05:19 UTC.
Position N 48°31' W 122°55'.
Warning: this ship's position is 12 days out of date.

Length 11 m.

Type: Sailing vessel. MMSI: 367376770.

Date/timePositionNaut miles runAvg speedWind from/ knotsBaromVisibWave heightAir tempDewpointWater temp
2017-Sep-12 01:34N 48°31' W 122°55'0 0.0
2017-Sep-12 01:22N 48°31' W 122°55'1 3.2
2017-Sep-12 01:00N 48°32' W 122°56'2 5.0
2017-Sep-12 00:30N 48°32' W 122°60'1 1.6
2017-Sep-11 23:54N 48°32' W 123°01'2 4.0
2017-Sep-11 23:29N 48°32' W 122°58'2 3.6
2017-Sep-11 23:00N 48°32' W 122°56'1 1.9
2017-Sep-11 22:30N 48°31' W 122°55'  
2017-Sep-09 02:43N 48°31' W 122°55'0 0.0
2017-Sep-09 02:28N 48°31' W 122°55'0 0.0
2017-Sep-09 01:58N 48°31' W 122°55'0 0.0
2017-Sep-09 01:25N 48°31' W 122°55'0 0.0
2017-Sep-09 00:58N 48°31' W 122°55'0 0.0
2017-Sep-09 00:28N 48°31' W 122°55'0 0.2
2017-Sep-08 23:58N 48°31' W 122°55'1 2.2
2017-Sep-08 23:30N 48°32' W 122°56'2 4.8
2017-Sep-08 22:59N 48°32' W 122°59'1 0.6
2017-Sep-08 21:04N 48°32' W 123°01'0 0.1
2017-Sep-08 20:59N 48°32' W 123°01'2 4.4
2017-Sep-08 20:30N 48°32' W 122°58'3 5.8
2017-Sep-08 20:00N 48°29' W 122°58'2 3.6
2017-Sep-08 19:21N 48°27' W 122°59'0 0.1
2017-Sep-08 17:45N 48°26' W 122°59'1 4.9
2017-Sep-08 17:30N 48°26' W 122°57'3 5.7
2017-Sep-08 17:00N 48°29' W 122°57'3 5.7
2017-Sep-08 16:30N 48°31' W 122°55'0 0.9
2017-Sep-08 15:59N 48°31' W 122°55'0 0.0
2017-Sep-08 15:29N 48°31' W 122°55'0 0.0
2017-Sep-08 15:00N 48°31' W 122°55'0 0.0
2017-Sep-08 00:48N 48°31' W 122°55'0 0.0
2017-Sep-08 00:30N 48°31' W 122°55'0 0.0
2017-Sep-08 00:00N 48°31' W 122°55'0 0.0
2017-Sep-07 23:30N 48°31' W 122°55'0 0.0
2017-Sep-07 22:57N 48°31' W 122°55'0 0.0
2017-Sep-07 22:30N 48°31' W 122°55'1 1.8
2017-Sep-07 21:59N 48°31' W 122°56'1 1.8
2017-Sep-07 21:31N 48°31' W 122°57'1 2.7
2017-Sep-07 21:00N 48°30' W 122°57'  
2017-Sep-04 18:35N 48°32' W 122°48'1 6.2
2017-Sep-04 18:28N 48°32' W 122°50'2 0.1
2017-Sep-04 02:58N 48°33' W 122°52'0 0.0
2017-Sep-04 02:30N 48°33' W 122°52'1 2.8
2017-Sep-04 02:00N 48°34' W 122°54'2 4.8
2017-Sep-04 01:30N 48°32' W 122°55'1 0.3
2017-Sep-03 22:08N 48°31' W 122°55'0 0.3
2017-Sep-03 22:00N 48°31' W 122°55'2 5.0
2017-Sep-03 21:30N 48°33' W 122°56'  

Dump ship's entire track history